Aérodrome :
LOGIN :

S'inscrire | Disclaimer

   EN    FR    IT 

 










Légende :    VFR   VFR Marginal   IFR   IFR Intensif   IFR Très Intensif
Visi : 
Plafond : 
>= 8 km
>= 3000ft
5 à 8 km
1000 à 3000 ft
1500m à 5 km
500 à 1000 ft
800 à 1500m
200 à 500 ft
< 800m
< 200 ft
Symboles :   Orages  Brouillard  Fortes neiges  Fortes précipitations  Vent > 20 kt
SIGMETs :   Divers  Orages  Givrage  Turbulence  Onde Orograph.  Cendres Volcan.







- Altitude de l'aérodrome : 622 ft
- Code IATA : BRS
- Voir les cartes d'approche


EGGD - Bristol Int.

DERNIER METAR :
  • 151520Z 02009KT 2800 -DZ BR BKN002 10/10 Q1012

METARs EXPIRÉS :
  • 151450Z 03007KT 5000 -DZ BR FEW001 BKN003 10/10 Q1012
  • 151420Z 03006KT 9999 BKN004 10/10 Q1012
  • 151350Z 05010KT 9999 BKN003 10/10 Q1011
  • 151320Z 05011KT 6000 -RADZ OVC003 10/10 Q1011
  • 151250Z 06013KT 7000 BKN003 OVC018 10/10 Q1012

TAF AMD TAF EGGD
Valide du 15 à 14h jusqu'au 16 à 12h UTC


151431Z 1514/1612 02010KT 9999 OVC003
TEMPO 1514/1518 1200 RADZ BR BKN001
PROB30
TEMPO 1514/1518 BKN010
BECMG 1518/1521 08006KT 4000 -DZ BR
PROB40 1518/1609 0200 FG OVC001
BECMG 1609/1612 17010KT 6000 NSW BKN008
ATIS : +44 1275 473 666
Pas de NOTAMs connus pour ce terrain.
1 SIGMET publié pour la FIR London (EGTT) :
 
Turbulence forte
EGTT SIGMET 04 VALID 151149/151530 EGRR
EGTT LONDON FIR SEV TURB FCST W OF LINE N5500 W00332 - N4957 W00215 FL240/350 MOV E 20KT WKN=



MET'MAP, la Météo Aéronautique d'un coup d'oeil ! - Copyright ORBIFLY Décembre 2007 - Disclaimer

ORBIFLY MET'MAP TEAM :

Programmation & Développement : Alexandra Zaïnal
Conception & Développement : Baudouin d'Aumeries
Co-Programmation & Développement : Marc-Olivier Méhu
Soutien technique & logistique : Manuel Goepfert

Contact : metmap@orbifly.com




SOURCES & CREDITS :

   NOAA